Macdill AFB, Florida
Current Conditions -  °F | °C
As of 5:58 PM on Tuesday 27 Jan 2015 (Local Time) from KMCF Reporting Station
Clear Clear  
Wind Chill: 65°   Ceiling: Unl
Heat Index: 65°   Visibility: 10mi
Dew Point: 54°   Wind: 13mph
Humidity: 68%   Direction: 260°W
Pressure: 29.98"   Gusts: 17mph
Location:  27.8467°N, 82.5182°W
Report Text: KMCF 272258Z AUTO 26011G15KT 220V290 10SM CLR 18/12 A2998 RMK AO2 SLP155 T01830124
Loading
Personal Weather Stations






























Interactive Weather Map New forecast layout! Learn more

10-Day Weather Forecast

Advertisements
Track Severe Weather on mobile